Dike, Iowa
Current Conditions -  °F | °C
As of 10:31 AM on Saturday 20 Dec 2014 (Local Time) from KALO Reporting Station
Haze Haze  
Wind Chill: 23°   Ceiling: 400
Heat Index: 30°   Visibility: 1.7mi
Dew Point: 30°   Wind: 7mph
Humidity: 100%   Direction: 170°S
Pressure: 30.19"   Gusts: NA
Location:  42.46°N, 92.63°W
Report Text: KALO 201631Z 17006KT 1 3/4SM UP BR OVC004 M01/M01 A3019 RMK AO2 UPB31 P0000 T10111011
Loading
Personal Weather Stations






























Interactive Weather Map New forecast layout! Learn more

10-Day Weather Forecast

Advertisements
Track Severe Weather on mobile